Time;durP1;ratioP1;P1;durP2;ratioP2;P2;SDS_P1;SDS_P2;PMS_P1;PMS_P2;Temp;Humidity;BMP_temperature;BMP_pressure;BME280_temperature;BME280_humidity;BME280_pressure;Samples;Min_cycle;Max_cycle;Signal;HPM_P1;HPM_P2
2023/03/31 00:01:10;;;;;;;10.27;2.65;;;;;;;15.11;61.13;99802.34;5036850;28;20364;-66
2023/03/31 00:03:37;;;;;;;14.90;2.40;;;;;;;15.12;60.97;99805.84;5035263;28;20512;-65
2023/03/31 00:06:04;;;;;;;10.65;2.38;;;;;;;15.14;61.15;99812.84;5035467;28;20075;-66
2023/03/31 00:08:34;;;;;;;9.18;2.40;;;;;;;15.17;60.92;99827.78;5036600;28;20035;-65
2023/03/31 00:11:01;;;;;;;11.88;2.03;;;;;;;15.18;60.92;99822.44;5036435;28;20090;-66
2023/03/31 00:13:27;;;;;;;13.10;2.57;;;;;;;15.16;60.91;99805.69;5036763;28;20053;-66
2023/03/31 00:16:02;;;;;;;12.25;3.00;;;;;;;15.07;61.56;99790.06;5036680;28;20025;-66
2023/03/31 00:18:28;;;;;;;10.65;2.80;;;;;;;15.03;61.38;99785.75;5036319;28;20074;-66
2023/03/31 00:20:58;;;;;;;8.10;2.55;;;;;;;15.02;61.28;99792.88;5035312;28;20026;-66
2023/03/31 00:23:26;;;;;;;10.75;2.65;;;;;;;15.02;61.61;99795.53;5035163;28;20017;-66
2023/03/31 00:25:55;;;;;;;10.30;2.60;;;;;;;15.06;61.42;99809.53;5039562;28;20075;-66
2023/03/31 00:28:21;;;;;;;10.10;2.28;;;;;;;15.08;61.13;99821.00;5038409;28;20028;-66
2023/03/31 00:30:47;;;;;;;12.98;2.75;;;;;;;15.06;61.35;99804.22;5041163;28;20031;-66
2023/03/31 00:33:12;;;;;;;13.83;2.47;;;;;;;14.98;61.85;99795.66;5042567;28;20021;-66
2023/03/31 00:35:39;;;;;;;13.80;3.28;;;;;;;14.97;61.80;99800.09;5041646;28;20117;-65
2023/03/31 00:38:07;;;;;;;11.30;2.63;;;;;;;14.88;62.40;99785.31;5042816;28;20041;-66
2023/03/31 00:40:33;;;;;;;12.90;3.20;;;;;;;14.81;62.70;99781.09;5041518;28;20029;-66
2023/03/31 00:42:59;;;;;;;15.90;2.63;;;;;;;14.77;62.57;99776.81;5042940;28;20132;-65
2023/03/31 00:45:27;;;;;;;10.97;2.43;;;;;;;14.72;63.12;99768.13;5042950;28;20088;-66
2023/03/31 00:47:56;;;;;;;9.30;2.22;;;;;;;14.74;62.69;99775.13;5042737;28;20028;-65
2023/03/31 00:50:27;;;;;;;10.25;2.42;;;;;;;14.78;62.51;99783.84;5042817;28;20029;-66
2023/03/31 00:53:09;;;;;;;9.25;2.28;;;;;;;14.81;62.64;99799.66;5042769;28;20034;-66
2023/03/31 00:55:40;;;;;;;11.90;2.70;;;;;;;14.78;62.56;99790.03;5043059;28;20412;-65
2023/03/31 00:58:13;;;;;;;14.93;3.00;;;;;;;14.74;63.06;99787.50;5044691;28;20033;-65
2023/03/31 01:00:40;;;;;;;11.88;2.80;;;;;;;14.71;62.90;99771.69;5062926;28;20074;-66
2023/03/31 01:03:08;;;;;;;9.65;2.80;;;;;;;14.67;63.35;99796.53;5062472;28;20485;-66
2023/03/31 01:05:48;;;;;;;13.23;2.70;;;;;;;14.62;63.59;99789.56;5055610;28;20179;-65
2023/03/31 01:08:17;;;;;;;11.80;2.85;;;;;;;14.64;63.15;99801.00;5060867;28;20700;-65
2023/03/31 01:10:47;;;;;;;11.37;2.40;;;;;;;14.69;62.83;99800.00;5050387;28;20128;-66
2023/03/31 01:13:15;;;;;;;13.68;2.63;;;;;;;14.68;63.09;99808.84;5042333;28;20021;-66
2023/03/31 01:15:41;;;;;;;11.00;2.70;;;;;;;14.66;63.21;99821.28;5042749;28;20033;-65
2023/03/31 01:18:09;;;;;;;13.15;2.55;;;;;;;14.61;63.29;99814.34;5042278;28;20507;-66
2023/03/31 01:21:13;;;;;;;12.27;2.80;;;;;;;14.62;63.55;99826.69;5042492;28;20037;-65
2023/03/31 01:23:47;;;;;;;11.50;3.03;;;;;;;14.63;63.33;99833.72;5042412;28;20032;-65
2023/03/31 01:26:42;;;;;;;14.00;3.15;;;;;;;14.55;63.72;99819.78;5042799;28;20025;-65
2023/03/31 01:29:31;;;;;;;12.20;2.90;;;;;;;14.45;64.28;99807.72;5042131;28;20481;-66
2023/03/31 01:32:15;;;;;;;10.80;2.92;;;;;;;14.36;64.77;99803.53;5042490;28;20105;-65
2023/03/31 01:34:56;;;;;;;15.50;3.13;;;;;;;14.35;64.52;99802.69;5042304;28;20105;-65
2023/03/31 01:37:44;;;;;;;12.40;3.07;;;;;;;14.33;64.82;99793.88;5038436;28;20021;-65
2023/03/31 01:40:21;;;;;;;13.70;3.13;;;;;;;14.33;64.45;99788.59;5039391;28;20029;-66
2023/03/31 01:43:25;;;;;;;11.50;2.80;;;;;;;14.29;64.67;99797.53;5039196;28;20454;-65
2023/03/31 01:46:27;;;;;;;8.15;2.70;;;;;;;14.28;64.38;99811.69;5032669;28;20113;-66
2023/03/31 01:49:17;;;;;;;12.93;2.78;;;;;;;14.27;64.64;99809.09;5029293;28;20033;-65
2023/03/31 01:51:52;;;;;;;10.73;3.33;;;;;;;14.23;64.90;99797.69;5039096;28;20411;-65
2023/03/31 01:54:38;;;;;;;9.80;2.97;;;;;;;14.21;65.17;99805.66;5039026;28;20029;-65
2023/03/31 01:57:27;;;;;;;11.02;3.25;;;;;;;14.18;65.23;99805.75;5039159;28;20025;-65
2023/03/31 02:00:04;;;;;;;15.02;3.10;;;;;;;14.15;64.93;99800.53;5039080;28;20382;-65
2023/03/31 02:02:41;;;;;;;13.57;2.90;;;;;;;14.15;65.11;99820.88;5039054;28;20116;-65
2023/03/31 02:05:12;;;;;;;12.00;3.03;;;;;;;14.19;64.64;99827.81;5038971;28;20037;-65
2023/03/31 02:07:49;;;;;;;14.02;3.08;;;;;;;14.20;64.62;99842.81;5037576;28;20035;-65
2023/03/31 02:10:16;;;;;;;16.60;3.17;;;;;;;14.20;64.66;99826.91;5038650;28;20067;-65
2023/03/31 02:12:44;;;;;;;14.90;3.80;;;;;;;14.14;65.12;99820.00;5038707;28;20227;-65
2023/03/31 02:15:17;;;;;;;9.82;2.75;;;;;;;14.12;64.86;99843.00;5038636;28;20029;-65
2023/03/31 02:17:44;;;;;;;18.20;3.67;;;;;;;14.11;64.89;99835.09;5038363;28;20478;-65
2023/03/31 02:20:14;;;;;;;13.82;3.45;;;;;;;14.02;65.71;99818.53;5037404;28;20030;-65
2023/03/31 02:22:44;;;;;;;11.43;3.60;;;;;;;13.93;66.10;99810.84;5038370;28;20030;-65
2023/03/31 02:25:14;;;;;;;12.70;3.40;;;;;;;13.89;65.93;99802.09;5038503;28;20025;-65
2023/03/31 02:27:44;;;;;;;10.77;2.85;;;;;;;13.88;65.70;99812.75;5036775;28;20032;-65
2023/03/31 02:30:10;;;;;;;11.77;2.67;;;;;;;13.90;65.72;99825.00;5038437;28;20105;-65
2023/03/31 02:32:39;;;;;;;10.35;3.00;;;;;;;13.93;65.54;99835.50;5036677;28;20025;-65
2023/03/31 02:35:09;;;;;;;10.68;3.00;;;;;;;13.95;65.55;99829.31;5038347;28;20028;-65
2023/03/31 02:37:35;;;;;;;13.68;3.40;;;;;;;13.95;65.52;99824.91;5038127;28;20029;-65
2023/03/31 02:40:09;;;;;;;10.73;2.75;;;;;;;13.90;65.81;99821.50;5038313;28;20062;-65
2023/03/31 02:42:36;;;;;;;10.43;3.33;;;;;;;13.86;66.03;99835.69;5038207;28;20049;-65
2023/03/31 02:45:25;;;;;;;15.70;3.10;;;;;;;13.84;65.86;99850.75;5038001;28;20021;-65
2023/03/31 02:47:51;;;;;;;14.02;3.00;;;;;;;13.80;65.91;99857.91;5037739;28;20025;-65
2023/03/31 02:50:16;;;;;;;15.47;3.30;;;;;;;13.76;66.14;99850.97;5038032;28;20055;-65
2023/03/31 02:52:55;;;;;;;13.47;3.20;;;;;;;13.76;66.00;99857.09;5037897;28;20044;-65
2023/03/31 02:55:51;;;;;;;12.98;3.10;;;;;;;13.74;66.23;99850.97;5037693;28;20381;-65
2023/03/31 02:58:43;;;;;;;12.13;3.20;;;;;;;13.75;66.03;99844.78;5041213;28;20029;-65
2023/03/31 03:01:15;;;;;;;9.40;2.72;;;;;;;13.76;65.99;99849.16;5057689;28;20021;-65
2023/03/31 03:04:26;;;;;;;9.23;2.78;;;;;;;13.77;65.80;99853.56;5057515;28;20025;-65
2023/03/31 03:07:06;;;;;;;10.23;2.97;;;;;;;13.74;66.00;99848.34;5045445;28;20072;-65
2023/03/31 03:09:57;;;;;;;10.27;2.58;;;;;;;13.68;66.42;99850.25;5054906;28;20021;-65
2023/03/31 03:12:32;;;;;;;12.00;2.92;;;;;;;13.64;66.36;99852.13;5036294;28;20054;-65
2023/03/31 03:15:01;;;;;;;14.70;2.95;;;;;;;13.66;66.28;99855.59;5037495;28;20375;-65
2023/03/31 03:17:32;;;;;;;10.93;2.63;;;;;;;13.70;65.94;99859.00;5037115;28;20044;-65
2023/03/31 03:20:00;;;;;;;10.30;2.50;;;;;;;13.74;65.68;99858.91;5037690;28;20091;-65
2023/03/31 03:22:26;;;;;;;16.70;3.42;;;;;;;13.73;66.18;99846.59;5036052;28;20021;-65
2023/03/31 03:24:52;;;;;;;15.02;3.25;;;;;;;13.75;65.99;99838.63;5035846;28;20034;-65
2023/03/31 03:27:18;;;;;;;14.57;3.60;;;;;;;13.75;66.09;99851.88;5035754;28;20084;-65
2023/03/31 03:29:44;;;;;;;13.23;3.45;;;;;;;13.75;65.97;99854.50;5037385;28;20025;-65
2023/03/31 03:32:09;;;;;;;9.30;2.93;;;;;;;13.72;65.88;99847.50;5037117;28;20033;-65
2023/03/31 03:34:35;;;;;;;9.27;2.85;;;;;;;13.73;65.74;99854.53;5035693;28;20078;-65
2023/03/31 03:37:00;;;;;;;10.33;3.00;;;;;;;13.75;65.75;99850.06;5037008;28;20036;-65
2023/03/31 03:39:26;;;;;;;11.13;3.00;;;;;;;13.75;65.79;99842.13;5037109;28;20081;-65
2023/03/31 03:41:51;;;;;;;12.27;3.00;;;;;;;13.78;65.73;99854.44;5037147;28;20445;-65
2023/03/31 03:44:17;;;;;;;10.87;2.80;;;;;;;13.77;65.58;99856.19;5037175;28;20044;-65
2023/03/31 03:46:42;;;;;;;11.17;3.00;;;;;;;13.78;65.63;99849.16;5035632;28;20021;-65
2023/03/31 03:49:07;;;;;;;11.33;3.00;;;;;;;13.76;65.78;99851.81;5036669;28;20071;-65
2023/03/31 03:51:33;;;;;;;13.30;3.20;;;;;;;13.73;65.86;99856.28;5036885;28;20029;-65
2023/03/31 03:53:58;;;;;;;12.43;3.13;;;;;;;13.71;66.04;99859.00;5036654;28;20039;-65
2023/03/31 03:56:23;;;;;;;12.17;3.37;;;;;;;13.69;66.07;99860.81;5051336;28;20061;-65
2023/03/31 03:58:49;;;;;;;14.23;3.40;;;;;;;13.68;66.16;99868.78;5055518;28;20041;-65
2023/03/31 04:01:15;;;;;;;10.95;2.80;;;;;;;13.62;66.21;99868.00;5056298;28;20526;-65
2023/03/31 04:03:40;;;;;;;13.60;3.00;;;;;;;13.62;66.28;99869.78;5056657;28;20053;-65
2023/03/31 04:06:06;;;;;;;13.97;3.30;;;;;;;13.60;66.18;99875.13;5056956;28;20025;-65
2023/03/31 04:08:31;;;;;;;12.32;3.38;;;;;;;13.60;66.28;99876.88;5056712;28;20044;-65
2023/03/31 04:10:56;;;;;;;8.53;2.77;;;;;;;13.57;66.34;99887.53;5040880;28;20084;-65
2023/03/31 04:13:22;;;;;;;11.63;2.90;;;;;;;13.58;66.29;99891.91;5036844;28;20064;-65
2023/03/31 04:15:47;;;;;;;10.20;2.63;;;;;;;13.57;66.31;99892.81;5068770;28;20026;-65
2023/03/31 04:18:21;;;;;;;12.98;3.22;;;;;;;13.55;66.47;99899.94;5036529;28;20022;-66
2023/03/31 04:21:05;;;;;;;16.67;3.83;;;;;;;13.56;66.17;99902.56;5036599;28;20021;-65
2023/03/31 04:23:41;;;;;;;14.70;3.10;;;;;;;13.53;66.84;99907.03;5045086;28;20079;-65
2023/03/31 04:26:08;;;;;;;11.57;3.13;;;;;;;13.48;66.66;99908.00;5036618;28;20025;-65
2023/03/31 04:28:34;;;;;;;11.98;3.72;;;;;;;13.45;66.81;99910.72;5036533;28;20029;-65
2023/03/31 04:31:01;;;;;;;13.85;4.07;;;;;;;13.42;67.00;99913.41;5036314;28;20029;-65
2023/03/31 04:33:27;;;;;;;12.10;3.20;;;;;;;13.39;67.12;99913.47;5036642;28;20401;-65
2023/03/31 04:35:52;;;;;;;12.00;3.40;;;;;;;13.37;66.92;99928.47;5036690;28;20021;-65
2023/03/31 04:38:20;;;;;;;12.07;3.33;;;;;;;13.37;67.29;99939.06;5036390;28;20526;-65
2023/03/31 04:40:50;;;;;;;14.55;3.63;;;;;;;13.32;67.65;99936.53;5035440;28;20030;-65
2023/03/31 04:43:17;;;;;;;14.45;3.42;;;;;;;13.33;67.58;99934.75;5036379;28;20080;-66
2023/03/31 04:45:43;;;;;;;15.80;3.70;;;;;;;13.32;67.59;99935.66;5036392;28;20028;-65
2023/03/31 04:48:09;;;;;;;12.17;3.53;;;;;;;13.32;67.82;99949.75;5034974;28;20033;-65
2023/03/31 04:50:35;;;;;;;19.52;4.32;;;;;;;13.34;67.62;99955.00;5036280;28;20033;-65
2023/03/31 04:53:01;;;;;;;12.65;4.35;;;;;;;13.34;67.95;99961.16;5049921;28;20074;-65
2023/03/31 04:55:27;;;;;;;21.38;3.90;;;;;;;13.35;68.12;99969.97;5055062;28;20029;-65
2023/03/31 04:57:53;;;;;;;14.83;3.77;;;;;;;13.35;68.18;99968.19;5054380;28;20025;-65
2023/03/31 05:00:19;;;;;;;18.70;3.60;;;;;;;13.37;68.18;99978.72;5036552;28;20459;-65
2023/03/31 05:02:44;;;;;;;16.52;3.97;;;;;;;13.41;68.51;99982.19;5036019;28;20029;-65
2023/03/31 05:05:10;;;;;;;16.33;3.90;;;;;;;13.41;68.37;99984.84;5036291;28;20068;-65
2023/03/31 05:07:35;;;;;;;17.53;4.33;;;;;;;13.42;68.55;99983.94;5036522;28;20022;-65
2023/03/31 05:10:01;;;;;;;16.33;4.10;;;;;;;13.45;68.59;99983.91;5034537;28;20042;-65
2023/03/31 05:12:26;;;;;;;18.60;4.40;;;;;;;13.45;68.63;99992.72;5036972;28;20025;-65
2023/03/31 05:14:52;;;;;;;15.00;4.35;;;;;;;13.45;68.79;99989.19;5039945;28;20386;-65
2023/03/31 05:17:17;;;;;;;12.97;4.10;;;;;;;13.45;68.65;99999.78;5039458;28;20097;-65
2023/03/31 05:19:43;;;;;;;16.57;4.47;;;;;;;13.48;68.84;100000.59;5039762;28;21191;-65
2023/03/31 05:22:09;;;;;;;11.35;4.15;;;;;;;13.52;68.67;100005.81;5038558;28;20017;-65
2023/03/31 05:24:34;;;;;;;14.47;4.17;;;;;;;13.51;68.71;100014.66;5039783;28;20470;-65
2023/03/31 05:26:59;;;;;;;17.35;4.47;;;;;;;13.51;68.81;100020.84;5038425;28;20024;-67
2023/03/31 05:29:25;;;;;;;11.83;3.77;;;;;;;13.53;68.67;100021.66;5039413;28;20060;-65
2023/03/31 05:31:52;;;;;;;14.30;3.43;;;;;;;13.58;68.71;100029.50;5039820;28;20074;-66
2023/03/31 05:34:18;;;;;;;16.10;4.15;;;;;;;13.58;68.69;100025.09;5039294;28;20032;-66
2023/03/31 05:36:46;;;;;;;14.25;3.95;;;;;;;13.59;68.75;100026.81;5039766;28;20025;-66
2023/03/31 05:39:13;;;;;;;14.52;4.53;;;;;;;13.59;68.83;100024.19;5029124;28;20565;-66
2023/03/31 05:41:38;;;;;;;14.93;4.20;;;;;;;13.63;68.63;100030.28;5038990;28;20112;-65
2023/03/31 05:44:04;;;;;;;14.68;3.95;;;;;;;13.65;68.42;100031.13;5040532;28;20060;-66
2023/03/31 05:46:29;;;;;;;13.27;4.07;;;;;;;13.67;68.35;100031.97;5045154;28;20064;-66
2023/03/31 05:48:55;;;;;;;15.80;4.00;;;;;;;13.68;68.45;100031.06;5037871;28;20265;-66
2023/03/31 05:51:21;;;;;;;12.97;3.43;;;;;;;13.72;68.43;100037.13;5038648;28;20034;-66
2023/03/31 05:53:47;;;;;;;15.15;4.32;;;;;;;13.75;68.07;100048.53;5041553;28;20032;-66
2023/03/31 05:56:12;;;;;;;10.97;3.20;;;;;;;13.80;68.08;100052.88;5047063;28;20037;-66
2023/03/31 05:58:38;;;;;;;11.13;3.45;;;;;;;13.83;68.16;100047.50;5044470;28;20071;-65
2023/03/31 06:01:06;;;;;;;12.00;3.20;;;;;;;13.85;67.89;100053.63;5040248;28;20037;-66
2023/03/31 06:03:36;;;;;;;15.30;3.58;;;;;;;13.89;67.88;100052.69;5038330;28;20469;-65
2023/03/31 06:06:04;;;;;;;14.47;3.00;;;;;;;13.89;67.75;100037.66;5034514;28;20036;-65
2023/03/31 06:08:30;;;;;;;12.88;3.35;;;;;;;13.93;67.71;100046.41;5054431;28;20035;-65
2023/03/31 06:10:55;;;;;;;13.02;3.72;;;;;;;13.95;67.54;100041.97;5038679;28;20060;-65
2023/03/31 06:13:22;;;;;;;16.73;4.57;;;;;;;13.99;67.41;100043.63;5036567;28;20076;-65
2023/03/31 06:15:58;;;;;;;17.13;5.43;;;;;;;14.03;67.54;100049.75;5052790;28;20481;-65
2023/03/31 06:18:27;;;;;;;23.27;7.15;;;;;;;14.06;67.37;100044.38;5052137;28;20056;-65
2023/03/31 06:20:53;;;;;;;21.55;8.00;;;;;;;14.05;67.70;100027.59;5037137;28;20029;-66
2023/03/31 06:23:20;;;;;;;19.05;5.70;;;;;;;14.06;67.82;100029.34;5038134;28;20047;-66
2023/03/31 06:25:45;;;;;;;18.30;4.20;;;;;;;14.09;67.37;100032.81;5038698;28;20040;-65
2023/03/31 06:28:11;;;;;;;15.13;3.75;;;;;;;14.13;67.22;100045.97;5038677;28;20026;-65
2023/03/31 06:30:36;;;;;;;14.47;3.30;;;;;;;14.17;67.11;100049.44;5052782;28;20025;-65
2023/03/31 06:33:02;;;;;;;14.90;3.37;;;;;;;14.23;67.01;100051.94;5033990;28;20494;-65
2023/03/31 06:35:27;;;;;;;13.50;3.10;;;;;;;14.26;67.17;100051.88;5038602;28;20033;-65
2023/03/31 06:37:52;;;;;;;17.47;3.60;;;;;;;14.28;66.96;100058.00;5038358;28;20183;-65
2023/03/31 06:40:18;;;;;;;18.77;3.80;;;;;;;14.30;66.89;100056.19;5035395;28;20028;-65
2023/03/31 06:42:43;;;;;;;15.80;3.80;;;;;;;14.32;66.72;100057.00;5037734;28;20029;-65
2023/03/31 06:45:09;;;;;;;20.23;3.60;;;;;;;14.32;66.61;100062.31;5053317;28;20044;-65
2023/03/31 06:47:36;;;;;;;18.48;3.58;;;;;;;14.33;66.76;100063.19;5058244;28;20024;-65
2023/03/31 06:50:02;;;;;;;24.92;4.35;;;;;;;14.35;66.72;100067.56;5058154;28;20078;-66
2023/03/31 06:52:28;;;;;;;22.07;3.70;;;;;;;14.36;66.41;100063.13;5058365;28;20051;-66
2023/03/31 06:54:53;;;;;;;21.70;3.00;;;;;;;14.38;66.13;100066.59;5058087;28;20432;-65
2023/03/31 06:57:19;;;;;;;23.23;3.37;;;;;;;14.42;66.13;100072.72;5058016;28;20067;-65
2023/03/31 06:59:45;;;;;;;24.52;4.68;;;;;;;14.45;65.99;100067.34;5058023;28;20056;-65
2023/03/31 07:02:10;;;;;;;23.93;3.40;;;;;;;14.47;65.86;100070.81;5058098;28;20029;-65
2023/03/31 07:04:36;;;;;;;32.17;4.00;;;;;;;14.50;65.77;100065.44;5057775;28;20025;-65
2023/03/31 07:07:01;;;;;;;25.80;3.47;;;;;;;14.55;65.80;100076.81;5057888;28;20028;-66
2023/03/31 07:09:26;;;;;;;26.70;3.77;;;;;;;14.59;65.69;100078.50;5055955;28;20106;-65
2023/03/31 07:11:52;;;;;;;24.37;3.33;;;;;;;14.63;65.70;100088.13;5037612;28;20288;-66
2023/03/31 07:14:17;;;;;;;21.30;3.03;;;;;;;14.69;65.52;100083.56;5038036;28;20033;-66
2023/03/31 07:16:43;;;;;;;25.43;3.43;;;;;;;14.73;65.66;100093.22;5036525;28;20027;-66
2023/03/31 07:19:09;;;;;;;23.73;3.20;;;;;;;14.74;65.54;100090.53;5037460;28;20045;-65
2023/03/31 07:21:35;;;;;;;23.73;3.30;;;;;;;14.77;65.51;100087.81;5037598;28;20463;-65
2023/03/31 07:24:01;;;;;;;27.13;3.10;;;;;;;14.85;65.46;100084.97;5037484;28;20108;-65
2023/03/31 07:26:26;;;;;;;26.93;3.80;;;;;;;14.92;65.51;100078.59;5037729;28;20081;-65
2023/03/31 07:28:55;;;;;;;23.97;3.27;;;;;;;15.02;65.28;100083.66;5037292;28;20021;-65
2023/03/31 07:31:20;;;;;;;23.88;3.10;;;;;;;15.09;65.08;100079.97;5036417;28;20029;-65
2023/03/31 07:33:46;;;;;;;19.83;3.00;;;;;;;15.20;64.89;100080.53;5069292;28;20032;-65
2023/03/31 07:36:12;;;;;;;21.93;3.37;;;;;;;15.36;64.65;100066.88;5036621;28;20025;-65
2023/03/31 07:38:37;;;;;;;27.20;3.53;;;;;;;15.59;64.35;100074.19;5037282;28;20151;-65
2023/03/31 07:41:02;;;;;;;24.65;4.25;;;;;;;15.73;63.57;100075.59;5041602;28;20025;-65
2023/03/31 07:43:28;;;;;;;22.37;3.77;;;;;;;15.77;63.34;100067.47;5037330;28;20036;-65
2023/03/31 07:45:53;;;;;;;24.23;4.80;;;;;;;15.76;63.17;100080.81;5037587;28;20032;-65
2023/03/31 07:48:19;;;;;;;28.60;4.30;;;;;;;15.76;63.37;100086.97;5037138;28;20032;-65
2023/03/31 07:50:44;;;;;;;23.60;4.72;;;;;;;15.74;63.29;100087.97;5035992;28;20120;-65
2023/03/31 07:53:10;;;;;;;26.40;5.87;;;;;;;15.72;63.13;100089.78;5036864;28;20500;-65
2023/03/31 07:55:36;;;;;;;26.23;5.63;;;;;;;15.64;63.09;100090.84;5037476;28;20057;-65
2023/03/31 07:58:01;;;;;;;25.38;4.97;;;;;;;15.59;63.08;100084.81;5037226;28;20432;-65
2023/03/31 08:00:27;;;;;;;24.70;4.00;;;;;;;15.52;63.28;100088.56;5037166;28;20113;-65
2023/03/31 08:02:52;;;;;;;22.60;4.15;;;;;;;15.45;63.18;100087.84;5035627;28;20013;-65
2023/03/31 08:05:19;;;;;;;25.50;4.60;;;;;;;15.39;63.28;100093.31;5037061;28;20034;-65
2023/03/31 08:07:47;;;;;;;28.25;4.28;;;;;;;15.37;63.29;100092.50;5036779;28;20022;-65
2023/03/31 08:10:17;;;;;;;26.10;4.63;;;;;;;15.29;63.11;100092.69;5036846;28;20056;-65
2023/03/31 08:12:43;;;;;;;40.33;7.18;;;;;;;15.18;62.22;100100.03;5036718;28;20080;-65
2023/03/31 08:15:10;;;;;;;34.63;5.67;;;;;;;15.14;63.07;100098.38;5036803;28;20029;-65
2023/03/31 08:17:35;;;;;;;33.17;4.68;;;;;;;15.11;63.00;100094.06;5036437;28;20025;-65
2023/03/31 08:20:01;;;;;;;37.50;6.07;;;;;;;15.13;63.42;100101.94;5037018;28;20044;-65
2023/03/31 08:22:27;;;;;;;40.30;6.77;;;;;;;15.11;63.63;100096.72;5035405;28;20036;-65
2023/03/31 08:24:52;;;;;;;39.30;5.60;;;;;;;15.09;63.21;100098.53;5035284;28;20025;-65
2023/03/31 08:27:17;;;;;;;48.13;5.83;;;;;;;15.11;63.33;100104.66;5036347;28;20080;-65
2023/03/31 08:29:43;;;;;;;37.27;5.80;;;;;;;15.14;63.38;100107.22;5043441;28;20451;-65
2023/03/31 08:32:08;;;;;;;38.40;6.17;;;;;;;15.15;63.03;100106.31;5045378;28;20029;-65
2023/03/31 08:34:35;;;;;;;38.87;6.53;;;;;;;15.14;63.07;100104.59;5036562;28;20120;-65
2023/03/31 08:37:00;;;;;;;36.37;4.77;;;;;;;15.15;63.04;100116.94;5041970;28;20354;-65
2023/03/31 08:39:26;;;;;;;32.05;4.80;;;;;;;15.13;63.03;100113.44;5036645;28;20054;-65
2023/03/31 08:42:15;;;;;;;30.23;3.70;;;;;;;15.10;63.15;100118.84;5036767;28;20033;-65
2023/03/31 08:45:01;;;;;;;35.38;5.28;;;;;;;15.09;63.48;100111.78;5036634;28;20021;-65
2023/03/31 08:47:29;;;;;;;34.08;4.35;;;;;;;15.09;63.46;100117.09;5038470;28;20037;-65
2023/03/31 08:50:14;;;;;;;39.63;6.07;;;;;;;15.09;63.52;100125.06;5040718;28;20033;-65
2023/03/31 08:52:53;;;;;;;37.65;5.80;;;;;;;15.09;63.83;100122.41;5040670;28;20033;-65
2023/03/31 08:55:26;;;;;;;41.53;4.95;;;;;;;15.13;63.48;100123.16;5039986;28;20041;-66
2023/03/31 08:58:12;;;;;;;37.70;4.65;;;;;;;15.13;63.28;100117.88;5039204;28;20033;-65
2023/03/31 09:00:53;;;;;;;33.50;4.30;;;;;;;15.16;63.19;100117.78;5040383;28;20040;-65
2023/03/31 09:03:35;;;;;;;33.17;5.80;;;;;;;15.12;62.88;100127.63;5040131;28;20036;-65
2023/03/31 09:06:07;;;;;;;37.60;5.43;;;;;;;15.11;62.74;100130.31;5039054;28;20049;-65
2023/03/31 09:08:37;;;;;;;40.28;6.10;;;;;;;15.09;63.14;100113.56;5040248;28;20030;-65
2023/03/31 09:11:31;;;;;;;37.85;5.75;;;;;;;15.09;62.75;100134.78;5039860;28;20410;-65
2023/03/31 09:14:15;;;;;;;44.42;6.88;;;;;;;15.09;63.32;100122.41;5040198;28;20055;-65
2023/03/31 09:17:11;;;;;;;40.63;5.50;;;;;;;15.10;62.87;100121.50;5040101;28;20481;-65
2023/03/31 09:19:42;;;;;;;42.30;6.80;;;;;;;15.09;63.04;100124.16;5039057;28;20037;-65
2023/03/31 09:22:19;;;;;;;38.58;5.88;;;;;;;15.07;63.46;100124.19;5040238;28;20029;-65
2023/03/31 09:24:54;;;;;;;35.63;5.75;;;;;;;15.05;63.05;100126.00;5040082;28;20031;-65
2023/03/31 09:27:21;;;;;;;52.22;6.40;;;;;;;15.06;62.94;100128.63;5039575;28;20029;-65
2023/03/31 09:30:00;;;;;;;33.87;5.20;;;;;;;15.07;63.07;100132.16;5039716;28;20462;-65
2023/03/31 09:32:30;;;;;;;37.15;5.78;;;;;;;15.06;62.83;100133.94;5043464;28;20029;-65
2023/03/31 09:35:15;;;;;;;46.40;7.20;;;;;;;15.04;62.57;100133.13;5059857;28;20430;-65
2023/03/31 09:37:41;;;;;;;41.85;6.95;;;;;;;15.06;62.71;100146.31;5044766;28;20076;-65
2023/03/31 09:40:09;;;;;;;39.63;6.60;;;;;;;15.02;62.24;100158.78;5039796;28;20037;-65
2023/03/31 09:42:35;;;;;;;37.55;5.22;;;;;;;15.01;61.97;100165.00;5039539;28;20049;-65
2023/03/31 09:45:01;;;;;;;36.25;5.28;;;;;;;15.00;62.22;100165.91;5039858;28;20378;-65
2023/03/31 09:47:41;;;;;;;40.13;5.75;;;;;;;14.97;61.91;100167.75;5054989;28;20582;-65
2023/03/31 09:50:08;;;;;;;42.93;6.57;;;;;;;14.92;61.68;100158.16;5039714;28;20044;-65
2023/03/31 09:52:38;;;;;;;42.85;6.80;;;;;;;14.92;61.72;100147.53;5039457;28;20029;-65
2023/03/31 09:55:16;;;;;;;38.33;6.00;;;;;;;14.95;61.76;100140.41;5038112;28;20100;-65
2023/03/31 09:57:42;;;;;;;39.10;5.88;;;;;;;15.00;61.74;100134.09;5039008;28;20098;-65
2023/03/31 10:00:12;;;;;;;40.67;6.17;;;;;;;15.09;61.53;100133.00;5038787;28;20029;-65
2023/03/31 10:02:40;;;;;;;40.08;6.60;;;;;;;15.24;61.39;100128.22;5039213;28;20025;-64
2023/03/31 10:05:16;;;;;;;36.85;5.63;;;;;;;15.34;61.13;100129.72;5039069;28;20029;-65
2023/03/31 10:07:42;;;;;;;39.43;5.80;;;;;;;15.37;60.68;100127.00;5038948;28;20032;-64
2023/03/31 10:10:21;;;;;;;35.92;5.22;;;;;;;15.42;60.58;100134.81;5038975;28;20041;-65
2023/03/31 10:12:51;;;;;;;49.60;7.70;;;;;;;15.40;60.13;100132.22;5038938;28;20034;-65
2023/03/31 10:15:25;;;;;;;41.80;5.70;;;;;;;15.41;60.35;100133.94;5039020;28;20105;-65
2023/03/31 10:17:50;;;;;;;35.90;5.63;;;;;;;15.44;60.00;100131.22;5038506;28;20044;-64
2023/03/31 10:20:38;;;;;;;42.08;6.40;;;;;;;15.42;59.65;100116.22;5039128;28;20115;-65
2023/03/31 10:23:21;;;;;;;35.35;5.43;;;;;;;15.48;59.34;100111.63;5038674;28;20040;-65
2023/03/31 10:25:49;;;;;;;31.47;4.67;;;;;;;15.60;59.37;100112.25;5035221;28;20040;-66
2023/03/31 10:28:17;;;;;;;36.63;5.78;;;;;;;15.74;59.16;100099.44;5038543;28;20108;-66
2023/03/31 10:30:54;;;;;;;28.48;5.18;;;;;;;15.91;58.80;100106.09;5055400;28;20039;-66
2023/03/31 10:33:24;;;;;;;35.45;6.18;;;;;;;15.99;58.27;100103.22;5038693;28;20034;-65
2023/03/31 10:36:05;;;;;;;36.28;5.50;;;;;;;16.02;57.80;100098.66;5038822;28;20036;-65
2023/03/31 10:38:38;;;;;;;35.40;5.20;;;;;;;16.06;57.84;100102.09;5034345;28;20056;-66
2023/03/31 10:41:04;;;;;;;29.75;5.18;;;;;;;16.04;57.21;100102.19;5038453;28;20048;-65
2023/03/31 10:43:40;;;;;;;30.75;4.93;;;;;;;16.07;57.40;100091.47;5038463;28;20037;-66
2023/03/31 10:46:06;;;;;;;33.87;4.97;;;;;;;16.16;57.24;100092.97;5038624;28;20021;-66
2023/03/31 10:48:36;;;;;;;33.40;4.80;;;;;;;16.19;56.94;100090.22;5038232;28;20041;-65
2023/03/31 10:51:17;;;;;;;40.40;6.28;;;;;;;16.22;56.24;100089.22;5038354;28;20029;-65
2023/03/31 10:53:43;;;;;;;39.78;6.03;;;;;;;16.25;56.11;100086.47;5038137;28;20033;-65
2023/03/31 10:56:30;;;;;;;44.03;7.40;;;;;;;16.25;55.47;100086.47;5036980;28;20037;-65
2023/03/31 10:59:18;;;;;;;34.92;5.80;;;;;;;16.23;55.35;100088.31;5038306;28;20037;-65
2023/03/31 11:02:17;;;;;;;38.40;6.10;;;;;;;16.10;54.96;100093.13;5042489;28;20028;-65
2023/03/31 11:05:04;;;;;;;36.30;5.90;;;;;;;16.04;55.94;100096.88;5057973;28;20082;-65
2023/03/31 11:08:03;;;;;;;31.83;5.55;;;;;;;16.00;55.90;100097.84;5056788;28;20119;-65
2023/03/31 11:10:40;;;;;;;40.23;6.43;;;;;;;16.00;56.38;100102.31;5047508;28;20101;-65
2023/03/31 11:13:11;;;;;;;37.17;8.35;;;;;;;15.98;56.12;100097.03;5037711;28;20031;-65
2023/03/31 11:15:46;;;;;;;36.30;7.13;;;;;;;15.99;56.09;100082.81;5038039;28;20037;-65
2023/03/31 11:18:56;;;;;;;38.17;8.68;;;;;;;16.04;55.78;100080.03;5036147;28;20497;-65
2023/03/31 11:21:30;;;;;;;44.85;9.73;;;;;;;16.08;55.08;100076.38;5027581;28;20037;-65
2023/03/31 11:24:15;;;;;;;38.40;8.10;;;;;;;16.04;55.01;100077.38;5037230;28;20029;-65
2023/03/31 11:26:58;;;;;;;41.17;9.20;;;;;;;16.04;55.09;100085.34;5057543;28;20041;-65
2023/03/31 11:29:33;;;;;;;37.67;8.95;;;;;;;16.00;54.81;100068.63;5036025;28;20037;-65
2023/03/31 11:32:40;;;;;;;41.22;8.82;;;;;;;15.99;55.23;100050.94;5037560;28;20032;-65
2023/03/31 11:35:43;;;;;;;36.97;8.23;;;;;;;16.10;55.34;100061.25;5037395;28;20030;-65
2023/03/31 11:38:50;;;;;;;38.80;8.80;;;;;;;16.19;54.67;100057.44;5037204;28;20056;-65
2023/03/31 11:41:36;;;;;;;35.50;9.13;;;;;;;16.18;53.86;100066.34;5028950;28;20045;-65